Time;durP1;ratioP1;P1;durP2;ratioP2;P2;SDS_P1;SDS_P2;PMS_P1;PMS_P2;Temp;Humidity;BMP_temperature;BMP_pressure;BME280_temperature;BME280_humidity;BME280_pressure;Samples;Min_cycle;Max_cycle;Signal;HPM_P1;HPM_P2
2023/04/20 00:00:29;;;;;;;11.70;7.13;;;11.00;43.30;;;;;;4972550;28;20055;-83
2023/04/20 00:02:59;;;;;;;12.05;7.15;;;11.00;43.40;;;;;;4962144;28;20019;-83
2023/04/20 00:05:25;;;;;;;17.77;8.18;;;10.90;43.60;;;;;;4977371;28;20050;-84
2023/04/20 00:07:53;;;;;;;14.18;7.03;;;10.90;43.80;;;;;;4962216;28;20094;-84
2023/04/20 00:10:19;;;;;;;15.40;7.05;;;10.80;43.90;;;;;;4986992;28;20030;-83
2023/04/20 00:12:45;;;;;;;12.88;7.22;;;10.80;44.00;;;;;;4991763;28;20019;-84
2023/04/20 00:15:11;;;;;;;12.75;7.25;;;10.70;44.10;;;;;;4976290;28;20077;-84
2023/04/20 00:17:38;;;;;;;13.68;7.93;;;10.70;44.30;;;;;;4964360;28;20026;-83
2023/04/20 00:20:04;;;;;;;11.18;7.55;;;10.60;44.40;;;;;;4951891;28;20492;-84
2023/04/20 00:22:34;;;;;;;13.55;7.80;;;10.60;44.40;;;;;;4956882;28;20563;-82
2023/04/20 00:25:00;;;;;;;14.65;7.95;;;10.60;44.50;;;;;;4944529;28;20090;-85
2023/04/20 00:27:27;;;;;;;12.00;6.82;;;10.60;44.60;;;;;;4977105;28;20019;-84
2023/04/20 00:29:53;;;;;;;11.35;7.72;;;10.60;44.70;;;;;;4946414;28;20401;-84
2023/04/20 00:32:19;;;;;;;16.42;7.25;;;10.60;44.70;;;;;;4956313;28;20015;-84
2023/04/20 00:34:45;;;;;;;13.57;8.40;;;10.50;44.80;;;;;;4954646;28;20038;-85
2023/04/20 00:37:10;;;;;;;14.93;7.63;;;10.50;45.00;;;;;;4974982;28;20070;-84
2023/04/20 00:39:36;;;;;;;13.32;7.80;;;10.50;45.10;;;;;;4945725;28;20038;-85
2023/04/20 00:42:06;;;;;;;14.75;8.30;;;10.50;45.20;;;;;;4965916;28;20035;-85
2023/04/20 00:44:32;;;;;;;16.45;8.20;;;10.50;46.00;;;;;;4967658;28;20023;-85
2023/04/20 00:46:58;;;;;;;11.77;7.30;;;10.50;45.50;;;;;;4981506;28;20022;-85
2023/04/20 00:49:28;;;;;;;12.48;7.50;;;10.50;45.60;;;;;;4975456;28;20047;-87
2023/04/20 00:51:56;;;;;;;14.75;7.90;;;10.40;45.70;;;;;;4967409;28;20030;-87
2023/04/20 00:54:22;;;;;;;10.90;7.75;;;10.40;45.80;;;;;;4970414;28;20038;-85
2023/04/20 00:56:51;;;;;;;13.48;8.57;;;10.40;45.90;;;;;;4970003;28;20031;-86
2023/04/20 00:59:17;;;;;;;16.02;8.15;;;10.40;46.00;;;;;;4982740;28;20034;-86
2023/04/20 01:01:43;;;;;;;11.55;8.38;;;10.40;46.00;;;;;;4969075;28;20043;-87
2023/04/20 01:04:09;;;;;;;17.85;9.32;;;10.40;46.10;;;;;;4961098;28;20030;-86
2023/04/20 01:06:35;;;;;;;12.60;7.78;;;10.40;46.10;;;;;;4969330;28;20063;-87
2023/04/20 01:09:02;;;;;;;10.82;8.15;;;10.30;46.20;;;;;;4984309;28;20046;-84
2023/04/20 01:11:28;;;;;;;;;;;10.30;46.30;;;;;;4966351;29;20158;-85
2023/04/20 01:13:54;;;;;;;11.93;7.75;;;10.20;45.90;;;;;;4965813;28;20376;-86
2023/04/20 01:16:21;;;;;;;10.52;7.15;;;10.20;46.30;;;;;;4971343;28;20038;-88
2023/04/20 01:18:49;;;;;;;8.88;7.32;;;10.20;46.40;;;;;;4948368;28;20026;-85
2023/04/20 01:21:17;;;;;;;14.20;7.47;;;10.20;46.40;;;;;;4965140;28;20392;-85
2023/04/20 01:23:43;;;;;;;11.23;7.38;;;10.10;46.40;;;;;;4969401;28;20023;-87
2023/04/20 01:26:11;;;;;;;11.57;7.13;;;10.10;46.40;;;;;;4972380;28;20073;-86
2023/04/20 01:28:37;;;;;;;10.55;6.75;;;10.10;46.50;;;;;;4967000;28;20376;-87
2023/04/20 01:31:07;;;;;;;16.77;7.15;;;10.00;46.60;;;;;;4945588;28;20078;-86
2023/04/20 01:33:33;;;;;;;15.90;7.20;;;10.00;46.70;;;;;;4973251;28;20125;-85
2023/04/20 01:35:59;;;;;;;10.27;6.35;;;10.00;46.70;;;;;;4975796;28;20030;-86
2023/04/20 01:38:26;;;;;;;13.65;6.93;;;10.00;46.80;;;;;;4969996;28;20118;-86
2023/04/20 01:40:53;;;;;;;9.38;6.32;;;10.00;46.90;;;;;;4958887;28;20046;-83
2023/04/20 01:43:22;;;;;;;12.30;7.25;;;9.90;47.00;;;;;;4957370;28;20038;-85
2023/04/20 01:45:48;;;;;;;10.95;7.13;;;9.90;47.20;;;;;;4967689;28;20031;-85
2023/04/20 01:48:14;;;;;;;13.20;7.70;;;9.90;47.20;;;;;;4975623;28;20030;-86
2023/04/20 01:50:42;;;;;;;15.63;7.70;;;9.90;47.40;;;;;;4954923;28;20027;-86
2023/04/20 01:53:08;;;;;;;11.15;7.60;;;9.90;47.50;;;;;;4966039;28;20097;-85
2023/04/20 01:55:34;;;;;;;17.75;8.52;;;9.80;47.70;;;;;;4978274;28;20050;-86
2023/04/20 01:58:00;;;;;;;14.30;8.50;;;9.80;47.70;;;;;;4969753;28;20034;-86
2023/04/20 02:00:26;;;;;;;18.08;8.27;;;9.80;47.90;;;;;;4969419;28;20023;-84
2023/04/20 02:02:52;;;;;;;21.45;8.52;;;9.80;47.80;;;;;;4975357;28;20418;-85
2023/04/20 02:05:18;;;;;;;11.48;7.50;;;9.80;48.00;;;;;;4978339;28;20069;-84
2023/04/20 02:07:44;;;;;;;18.90;8.05;;;9.80;48.00;;;;;;4973399;28;20030;-85
2023/04/20 02:10:10;;;;;;;10.38;7.90;;;9.80;48.20;;;;;;4974715;28;20034;-83
2023/04/20 02:12:36;;;;;;;14.27;8.50;;;9.70;48.40;;;;;;4983042;28;20076;-85
2023/04/20 02:15:03;;;;;;;12.63;7.70;;;9.70;48.80;;;;;;4991686;28;19999;-85
2023/04/20 02:17:31;;;;;;;18.35;8.18;;;9.70;48.40;;;;;;4981563;28;20135;-84
2023/04/20 02:19:57;;;;;;;;;;;9.70;48.40;;;;;;4969122;28;20027;-84
2023/04/20 02:22:23;;;;;;;13.55;7.57;;;9.70;48.00;;;;;;4958370;28;20049;-86
2023/04/20 02:24:49;;;;;;;13.73;7.47;;;9.70;48.40;;;;;;4964394;28;20356;-85
2023/04/20 02:27:14;;;;;;;12.10;7.65;;;9.70;48.60;;;;;;4969347;28;20500;-87
2023/04/20 02:29:40;;;;;;;19.40;7.68;;;9.70;48.60;;;;;;4961735;28;20380;-85
2023/04/20 02:32:06;;;;;;;14.57;7.93;;;9.70;48.60;;;;;;4968286;28;20041;-85
2023/04/20 02:34:32;;;;;;;12.38;8.10;;;9.70;48.70;;;;;;4975584;28;20026;-84
2023/04/20 02:36:58;;;;;;;11.27;7.40;;;9.70;48.70;;;;;;4973553;28;20031;-84
2023/04/20 02:39:24;;;;;;;14.23;7.20;;;9.80;48.70;;;;;;4969682;28;20031;-85
2023/04/20 02:41:53;;;;;;;11.23;7.47;;;9.80;48.70;;;;;;4965789;28;20049;-84
2023/04/20 02:44:18;;;;;;;12.32;7.97;;;9.80;48.80;;;;;;4971658;28;20029;-85
2023/04/20 02:46:44;;;;;;;16.48;7.57;;;9.80;48.80;;;;;;4964283;28;20019;-86
2023/04/20 02:49:10;;;;;;;14.75;6.50;;;9.80;48.90;;;;;;4961428;28;20041;-86
2023/04/20 02:51:36;;;;;;;12.93;7.20;;;9.80;48.80;;;;;;4948795;28;20023;-86
2023/04/20 02:54:02;;;;;;;13.90;6.13;;;9.90;48.90;;;;;;4968360;28;20023;-84
2023/04/20 02:56:28;;;;;;;10.35;6.95;;;9.90;48.90;;;;;;4973641;28;20018;-86
2023/04/20 02:58:54;;;;;;;25.80;7.38;;;10.00;49.00;;;;;;4981130;28;20070;-85
2023/04/20 03:01:20;;;;;;;17.75;8.57;;;10.00;49.00;;;;;;4969967;28;20031;-85
2023/04/20 03:03:46;;;;;;;13.32;7.43;;;10.00;49.10;;;;;;4972213;28;20461;-86
2023/04/20 03:06:12;;;;;;;13.57;8.23;;;10.00;49.00;;;;;;4964342;28;20066;-84
2023/04/20 03:08:38;;;;;;;11.77;7.20;;;10.00;49.00;;;;;;4954599;28;20030;-84
2023/04/20 03:11:04;;;;;;;11.60;7.38;;;10.10;49.00;;;;;;4958919;28;20102;-85
2023/04/20 03:13:29;;;;;;;13.18;7.30;;;10.10;49.00;;;;;;4982572;28;20089;-84
2023/04/20 03:15:55;;;;;;;12.07;7.57;;;10.10;48.90;;;;;;4986908;28;20023;-85
2023/04/20 03:18:21;;;;;;;10.93;7.78;;;10.20;49.00;;;;;;4961819;28;20480;-86
2023/04/20 03:20:47;;;;;;;13.45;7.32;;;10.20;49.00;;;;;;4958192;28;20138;-85
2023/04/20 03:23:13;;;;;;;16.45;8.05;;;10.20;49.00;;;;;;4957766;28;20019;-84
2023/04/20 03:25:39;;;;;;;16.33;8.27;;;10.20;49.10;;;;;;4957980;28;20573;-85
2023/04/20 03:28:05;;;;;;;12.05;7.40;;;10.30;49.20;;;;;;4967069;28;20019;-87
2023/04/20 03:30:31;;;;;;;15.68;9.07;;;10.40;49.20;;;;;;4971080;28;20059;-87
2023/04/20 03:32:56;;;;;;;12.13;7.40;;;10.40;49.40;;;;;;4959317;28;20022;-85
2023/04/20 03:35:22;;;;;;;11.32;7.53;;;10.50;49.20;;;;;;4959317;28;20034;-86
2023/04/20 03:37:48;;;;;;;13.93;7.60;;;10.60;49.20;;;;;;4957347;28;20023;-86
2023/04/20 03:40:14;;;;;;;11.90;7.80;;;10.60;49.00;;;;;;4957771;28;20169;-87
2023/04/20 03:42:40;;;;;;;10.43;7.53;;;10.70;49.10;;;;;;4948097;28;20035;-89
2023/04/20 03:45:07;;;;;;;12.52;7.00;;;10.70;49.20;;;;;;4959701;28;20034;-87
2023/04/20 03:47:33;;;;;;;16.05;7.88;;;10.70;49.40;;;;;;4950275;28;20041;-87
2023/04/20 03:49:58;;;;;;;14.02;8.23;;;10.80;49.20;;;;;;4952754;28;20117;-84
2023/04/20 03:52:24;;;;;;;13.82;8.07;;;10.90;49.10;;;;;;4964702;28;20022;-85
2023/04/20 03:54:50;;;;;;;17.70;8.40;;;10.90;49.00;;;;;;4948407;28;20041;-86
2023/04/20 03:57:16;;;;;;;19.42;10.30;;;11.00;48.90;;;;;;4948704;28;20396;-86
2023/04/20 03:59:42;;;;;;;13.35;9.05;;;11.00;48.80;;;;;;4966938;28;20039;-86
2023/04/20 04:02:09;;;;;;;19.55;10.45;;;11.10;48.70;;;;;;4981692;28;20035;-83
2023/04/20 04:04:35;;;;;;;25.40;11.35;;;11.20;49.00;;;;;;4967854;28;20109;-87
2023/04/20 04:07:01;;;;;;;18.35;11.30;;;11.20;49.10;;;;;;4969990;28;20034;-86
2023/04/20 04:09:27;;;;;;;12.00;8.23;;;11.20;49.90;;;;;;4978266;28;20027;-86
2023/04/20 04:11:53;;;;;;;16.30;10.40;;;11.10;49.10;;;;;;4977170;28;20019;-87
2023/04/20 04:14:19;;;;;;;14.57;9.40;;;11.10;49.50;;;;;;4976086;28;20023;-86
2023/04/20 04:16:45;;;;;;;17.20;9.27;;;11.10;49.30;;;;;;4982443;28;20369;-84
2023/04/20 04:19:11;;;;;;;17.98;10.05;;;11.30;49.10;;;;;;4982189;28;20042;-84
2023/04/20 04:21:36;;;;;;;25.88;11.85;;;11.40;49.00;;;;;;4984091;28;20027;-86
2023/04/20 04:24:03;;;;;;;23.15;9.68;;;11.50;48.90;;;;;;4994168;28;20037;-85
2023/04/20 04:26:30;;;;;;;15.73;10.23;;;11.50;49.00;;;;;;4975376;28;20424;-86
2023/04/20 04:28:57;;;;;;;14.60;9.15;;;11.60;49.10;;;;;;4960591;28;20041;-84
2023/04/20 04:31:23;;;;;;;18.05;9.95;;;11.60;49.10;;;;;;4967704;28;20031;-85
2023/04/20 04:33:49;;;;;;;19.23;10.18;;;11.60;49.50;;;;;;4956926;28;20054;-84
2023/04/20 04:36:15;;;;;;;15.10;9.45;;;11.80;49.80;;;;;;4949813;28;20023;-84
2023/04/20 04:38:44;;;;;;;13.23;9.23;;;12.30;49.00;;;;;;4974987;28;20026;-84
2023/04/20 04:41:13;;;;;;;14.82;9.00;;;12.70;48.40;;;;;;4975899;28;20035;-84
2023/04/20 04:43:40;;;;;;;19.58;8.70;;;13.30;47.30;;;;;;4979088;28;20015;-85
2023/04/20 04:46:11;;;;;;;14.45;9.55;;;14.00;46.70;;;;;;4973099;28;20026;-88
2023/04/20 04:48:39;;;;;;;12.70;8.70;;;14.90;44.70;;;;;;4978698;28;20027;-85
2023/04/20 04:51:05;;;;;;;15.85;10.13;;;15.50;42.90;;;;;;4976646;28;20027;-86
2023/04/20 04:53:31;;;;;;;12.63;9.52;;;15.80;42.20;;;;;;4969057;28;20027;-87
2023/04/20 04:55:57;;;;;;;17.30;10.10;;;16.10;42.40;;;;;;4966664;28;20110;-87
2023/04/20 04:58:23;;;;;;;16.70;8.63;;;16.70;41.70;;;;;;4979017;28;20051;-85
2023/04/20 05:00:49;;;;;;;14.85;10.35;;;17.40;41.30;;;;;;4958430;29;20039;-87
2023/04/20 05:03:15;;;;;;;14.30;9.00;;;17.90;39.60;;;;;;4967748;28;20027;-86
2023/04/20 05:05:41;;;;;;;14.27;9.93;;;18.50;38.50;;;;;;4965346;28;20031;-87
2023/04/20 05:08:07;;;;;;;17.33;10.50;;;18.90;39.00;;;;;;4998577;28;20019;-85
2023/04/20 05:10:33;;;;;;;12.80;10.23;;;19.40;38.00;;;;;;4978283;28;20400;-84
2023/04/20 05:12:59;;;;;;;24.98;10.50;;;19.80;37.20;;;;;;4980960;28;20269;-86
2023/04/20 05:15:25;;;;;;;18.25;9.88;;;20.10;36.40;;;;;;4979468;28;20499;-87
2023/04/20 05:17:52;;;;;;;15.00;9.35;;;20.40;36.20;;;;;;4993804;28;20094;-88
2023/04/20 05:20:18;;;;;;;18.48;9.52;;;20.70;35.60;;;;;;4980067;28;20015;-87
2023/04/20 05:22:44;;;;;;;14.30;10.20;;;21.10;35.00;;;;;;4966498;28;20034;-88
2023/04/20 05:25:10;;;;;;;18.15;9.88;;;21.40;35.00;;;;;;4985837;28;20031;-87
2023/04/20 05:27:36;;;;;;;14.20;8.88;;;21.60;34.30;;;;;;4993339;28;20038;-86
2023/04/20 05:30:03;;;;;;;15.38;9.55;;;21.80;34.00;;;;;;4965354;28;20023;-87
2023/04/20 05:32:29;;;;;;;13.70;8.73;;;22.20;33.60;;;;;;4981259;28;20015;-86
2023/04/20 05:34:59;;;;;;;18.70;9.68;;;22.60;33.30;;;;;;4986446;28;20030;-85
2023/04/20 05:37:24;;;;;;;16.05;7.70;;;23.20;32.90;;;;;;4980400;28;20023;-85
2023/04/20 05:39:50;;;;;;;17.88;9.27;;;23.90;32.20;;;;;;4962674;28;20045;-86
2023/04/20 05:42:16;;;;;;;13.63;8.65;;;23.80;32.20;;;;;;4950415;28;20039;-85
2023/04/20 05:44:42;;;;;;;18.38;9.43;;;24.30;31.70;;;;;;4963637;28;20069;-85
2023/04/20 05:47:08;;;;;;;19.85;9.02;;;24.60;31.70;;;;;;4977440;28;20031;-86
2023/04/20 05:49:35;;;;;;;14.50;7.97;;;25.00;30.70;;;;;;4959078;28;20019;-85
2023/04/20 05:52:01;;;;;;;13.55;7.97;;;25.50;30.40;;;;;;4998532;28;20027;-84
2023/04/20 05:54:27;;;;;;;14.70;7.95;;;26.40;30.00;;;;;;4971205;28;20034;-88
2023/04/20 05:56:58;;;;;;;15.20;9.43;;;26.90;29.50;;;;;;4986975;28;20037;-87
2023/04/20 05:59:25;;;;;;;17.65;8.10;;;27.20;29.40;;;;;;4983577;28;20061;-87
2023/04/20 06:01:51;;;;;;;15.23;8.90;;;27.70;29.10;;;;;;4980946;28;20027;-85
2023/04/20 06:04:18;;;;;;;18.92;8.88;;;28.10;28.80;;;;;;4976816;28;20043;-88
2023/04/20 06:06:45;;;;;;;18.23;8.97;;;28.50;28.50;;;;;;4963634;28;20030;-86
2023/04/20 06:09:11;;;;;;;14.23;7.93;;;28.00;28.50;;;;;;4985883;28;20271;-81
2023/04/20 06:11:45;;;;;;;15.63;7.75;;;28.30;28.80;;;;;;4969219;28;20031;-84
2023/04/20 06:14:13;;;;;;;20.25;8.27;;;28.30;28.40;;;;;;4988398;28;20106;-81
2023/04/20 06:16:39;;;;;;;12.45;8.15;;;;;;;;;;4958369;28;20035;-80
2023/04/20 06:19:05;;;;;;;13.88;7.70;;;29.50;27.30;;;;;;4982510;28;20022;-83
2023/04/20 06:21:35;;;;;;;13.65;8.82;;;29.10;27.60;;;;;;4972412;28;20516;-83
2023/04/20 06:24:01;;;;;;;11.25;7.82;;;28.20;28.20;;;;;;4974473;28;20033;-82
2023/04/20 06:26:32;;;;;;;12.00;6.85;;;27.90;28.10;;;;;;4984845;28;20087;-82
2023/04/20 06:28:58;;;;;;;11.73;7.25;;;27.80;28.10;;;;;;4990493;28;20046;-82
2023/04/20 06:31:30;;;;;;;11.90;6.22;;;27.70;28.00;;;;;;4964364;28;20034;-87
2023/04/20 06:33:55;;;;;;;13.40;7.53;;;27.80;28.10;;;;;;4965993;28;20026;-86
2023/04/20 06:36:21;;;;;;;15.95;8.55;;;27.70;28.00;;;;;;4987275;28;20111;-84
2023/04/20 06:38:54;;;;;;;12.73;8.30;;;27.30;28.40;;;;;;4983690;28;20070;-83
2023/04/20 06:41:20;;;;;;;14.90;7.15;;;27.20;28.30;;;;;;4984787;28;20043;-84
2023/04/20 06:43:46;;;;;;;8.98;7.32;;;27.50;28.40;;;;;;4972689;28;20374;-82
2023/04/20 06:46:12;;;;;;;12.10;7.78;;;28.60;28.20;;;;;;4958241;28;20033;-77
2023/04/20 06:48:38;;;;;;;11.23;6.37;;;29.00;27.90;;;;;;4959489;28;20015;-79
2023/04/20 06:51:04;;;;;;;13.98;6.25;;;28.60;27.70;;;;;;4974541;28;20054;-79
2023/04/20 06:53:29;;;;;;;16.15;6.50;;;28.80;27.60;;;;;;4973389;28;20403;-78
2023/04/20 06:55:56;;;;;;;8.82;7.55;;;29.40;27.60;;;;;;4969050;28;20031;-80
2023/04/20 06:58:22;;;;;;;10.52;5.80;;;30.00;27.30;;;;;;4960059;28;20448;-78
2023/04/20 07:00:48;;;;;;;7.77;5.50;;;29.60;26.90;;;;;;4965575;28;20027;-78
2023/04/20 07:03:13;;;;;;;8.77;6.03;;;29.20;27.00;;;;;;4964772;28;20417;-78
2023/04/20 07:05:42;;;;;;;8.27;5.40;;;28.60;27.10;;;;;;4983338;28;20023;-79
2023/04/20 07:08:08;;;;;;;12.88;6.13;;;28.90;27.30;;;;;;4952076;28;20033;-79
2023/04/20 07:10:37;;;;;;;9.77;5.67;;;;;;;;;;4965439;28;20034;-81
2023/04/20 07:13:03;;;;;;;7.40;5.38;;;;;;;;;;4970410;28;20054;-82
2023/04/20 07:15:30;;;;;;;14.48;5.93;;;31.50;46.80;;;;;;4973906;28;20034;-80
2023/04/20 07:17:55;;;;;;;8.98;5.20;;;31.10;26.40;;;;;;4984834;28;20027;-82
2023/04/20 07:20:24;;;;;;;16.20;6.30;;;32.00;26.70;;;;;;4968292;28;20114;-79
2023/04/20 07:22:53;;;;;;;19.58;5.63;;;32.60;25.90;;;;;;4988369;28;20042;-79
2023/04/20 07:25:19;;;;;;;8.02;5.88;;;32.90;25.30;;;;;;4979520;28;20391;-80
2023/04/20 07:27:54;;;;;;;9.93;5.55;;;32.30;25.70;;;;;;4985538;28;20030;-80
2023/04/20 07:30:20;;;;;;;11.30;6.22;;;32.00;25.70;;;;;;4981402;28;20035;-81
2023/04/20 07:32:50;;;;;;;15.07;5.30;;;31.50;25.60;;;;;;4986558;28;20023;-82
2023/04/20 07:35:16;;;;;;;8.90;5.05;;;31.20;25.90;;;;;;4956028;28;20269;-80
2023/04/20 07:37:42;;;;;;;7.40;4.80;;;31.00;25.80;;;;;;4985010;28;20034;-81
2023/04/20 07:40:09;;;;;;;9.40;6.10;;;31.50;25.60;;;;;;4956803;28;20091;-78
2023/04/20 07:42:36;;;;;;;6.55;4.82;;;31.50;25.50;;;;;;4973708;28;20027;-80
2023/04/20 07:45:05;;;;;;;8.30;4.68;;;32.00;25.50;;;;;;4975909;28;20063;-79
2023/04/20 07:47:33;;;;;;;6.82;4.70;;;33.40;24.60;;;;;;4970331;28;20524;-79
2023/04/20 07:49:59;;;;;;;4.95;4.20;;;33.40;24.90;;;;;;4989263;28;20090;-79
2023/04/20 07:52:25;;;;;;;7.13;4.97;;;32.50;24.60;;;;;;4982858;28;20030;-79
2023/04/20 07:54:56;;;;;;;8.37;4.83;;;31.40;25.00;;;;;;4978485;28;20269;-79
2023/04/20 07:57:23;;;;;;;8.07;4.22;;;31.00;25.50;;;;;;4976153;28;20373;-80
2023/04/20 07:59:49;;;;;;;7.55;4.38;;;30.20;24.80;;;;;;4981816;28;20035;-80
2023/04/20 08:02:16;;;;;;;8.98;4.95;;;28.10;25.00;;;;;;4978863;28;20045;-83
2023/04/20 08:04:43;;;;;;;19.05;6.38;;;25.80;25.60;;;;;;4987376;28;20062;-83
2023/04/20 08:07:09;;;;;;;10.07;4.38;;;25.50;26.20;;;;;;4951074;28;20031;-82
2023/04/20 08:09:35;;;;;;;6.40;4.60;;;26.80;26.20;;;;;;4957943;28;20053;-81
2023/04/20 08:12:02;;;;;;;18.83;6.60;;;28.20;25.60;;;;;;4969138;28;20465;-80
2023/04/20 08:14:27;;;;;;;11.02;5.22;;;28.90;25.00;;;;;;4975014;28;20424;-81
2023/04/20 08:16:54;;;;;;;10.35;5.03;;;29.00;25.30;;;;;;4976897;28;20033;-83
2023/04/20 08:19:20;;;;;;;14.25;4.60;;;29.50;25.20;;;;;;4995308;28;20110;-79
2023/04/20 08:21:46;;;;;;;21.55;5.53;;;28.70;25.40;;;;;;4978586;28;20039;-81
2023/04/20 08:24:12;;;;;;;8.88;5.40;;;28.80;25.80;;;;;;4962052;28;20077;-78
2023/04/20 08:26:39;;;;;;;9.65;4.75;;;29.70;25.30;;;;;;4983280;28;20440;-80
2023/04/20 08:29:05;;;;;;;24.00;6.45;;;30.40;25.30;;;;;;4985117;28;20103;-80
2023/04/20 08:31:31;;;;;;;10.20;4.78;;;31.30;24.90;;;;;;4976847;28;20033;-82
2023/04/20 08:33:57;;;;;;;8.10;5.30;;;31.70;24.70;;;;;;4957739;28;20047;-83
2023/04/20 08:36:26;;;;;;;7.90;4.50;;;32.10;24.40;;;;;;4961804;28;20273;-82
2023/04/20 08:39:14;;;;;;;4.47;4.03;;;31.70;24.90;;;;;;4975302;28;20019;-79
2023/04/20 08:41:40;;;;;;;5.30;4.43;;;32.40;24.60;;;;;;4962121;28;20046;-80
2023/04/20 08:44:07;;;;;;;8.88;5.40;;;34.00;23.70;;;;;;4965667;28;20101;-82
2023/04/20 08:46:33;;;;;;;7.63;3.97;;;34.00;24.10;;;;;;4979125;28;20389;-81
2023/04/20 08:49:09;;;;;;;8.68;6.00;;;34.50;23.30;;;;;;4962058;28;20091;-81
2023/04/20 08:51:35;;;;;;;13.65;4.55;;;33.60;23.10;;;;;;4972567;28;20034;-81
2023/04/20 08:54:06;;;;;;;12.50;4.40;;;32.60;23.20;;;;;;4972554;28;20015;-80
2023/04/20 08:56:33;;;;;;;9.07;6.47;;;32.70;23.60;;;;;;4965493;28;20114;-80
2023/04/20 08:59:02;;;;;;;8.30;4.15;;;32.50;23.90;;;;;;4951022;28;20023;-78
2023/04/20 09:01:28;;;;;;;8.13;3.72;;;32.70;23.90;;;;;;4969374;28;20535;-80
2023/04/20 09:03:54;;;;;;;12.82;4.95;;;32.30;23.40;;;;;;4977367;28;20038;-79
2023/04/20 09:06:21;;;;;;;10.23;4.63;;;31.30;23.60;;;;;;4969734;28;20031;-80
2023/04/20 09:08:47;;;;;;;5.88;4.55;;;30.50;24.30;;;;;;4962745;28;20334;-78
2023/04/20 09:11:28;;;;;;;6.85;4.25;;;31.20;24.40;;;;;;4951502;28;20488;-79
2023/04/20 09:14:11;;;;;;;6.72;3.97;;;30.50;24.40;;;;;;4975636;28;20023;-79
2023/04/20 09:16:47;;;;;;;4.57;4.18;;;30.40;24.80;;;;;;4981074;28;20018;-80
2023/04/20 09:19:13;;;;;;;;;;;30.90;24.60;;;;;;4966298;28;20058;-81
2023/04/20 09:21:52;;;;;;;8.57;4.53;;;31.90;24.50;;;;;;4982589;28;19918;-78
2023/04/20 09:24:23;;;;;;;8.15;4.25;;;31.70;24.10;;;;;;4983494;28;20043;-80
2023/04/20 09:26:49;;;;;;;7.70;4.13;;;31.90;24.00;;;;;;4983676;28;20066;-79
2023/04/20 09:29:24;;;;;;;5.47;3.73;;;32.80;23.80;;;;;;4980439;28;20023;-80
2023/04/20 09:31:51;;;;;;;7.05;3.90;;;32.80;23.60;;;;;;4982966;28;20253;-79
2023/04/20 09:34:18;;;;;;;7.10;4.05;;;31.10;23.50;;;;;;4953840;28;20031;-80
2023/04/20 09:36:46;;;;;;;5.57;4.38;;;29.70;24.30;;;;;;4983632;28;20019;-85
2023/04/20 09:39:15;;;;;;;8.18;5.05;;;28.30;24.80;;;;;;4993443;28;20041;-83
2023/04/20 09:41:42;;;;;;;9.20;5.00;;;27.50;25.60;;;;;;4964265;28;20579;-82
2023/04/20 09:44:08;;;;;;;11.38;6.13;;;27.60;25.50;;;;;;4963930;28;20055;-81
2023/04/20 09:46:38;;;;;;;8.23;4.65;;;26.60;25.50;;;;;;4980689;28;20377;-79
2023/04/20 09:49:06;;;;;;;5.55;4.78;;;25.30;25.80;;;;;;4967586;28;20091;-82
2023/04/20 09:51:34;;;;;;;8.57;5.07;;;24.20;26.70;;;;;;4955127;28;20392;-80
2023/04/20 09:54:02;;;;;;;8.50;4.82;;;23.20;27.50;;;;;;4977655;28;20034;-82
2023/04/20 09:56:29;;;;;;;10.70;6.68;;;22.40;28.10;;;;;;4971117;28;20559;-80
2023/04/20 09:58:56;;;;;;;12.45;7.05;;;22.00;28.70;;;;;;4961051;28;20414;-80
2023/04/20 10:01:22;;;;;;;8.80;5.57;;;21.30;29.30;;;;;;4964768;28;20114;-80
2023/04/20 10:03:55;;;;;;;7.45;4.75;;;21.00;29.60;;;;;;4979693;28;20174;-80
2023/04/20 10:06:22;;;;;;;7.82;5.30;;;22.10;29.50;;;;;;4960105;28;20395;-80
2023/04/20 10:08:50;;;;;;;9.80;4.88;;;23.40;28.50;;;;;;4966810;28;20106;-80
2023/04/20 10:11:28;;;;;;;9.52;5.18;;;24.90;27.90;;;;;;4979829;28;20484;-82
2023/04/20 10:13:55;;;;;;;8.00;4.38;;;27.40;26.80;;;;;;4976673;28;20111;-84
2023/04/20 10:16:21;;;;;;;10.25;4.47;;;29.10;25.60;;;;;;4957670;28;20065;-79
2023/04/20 10:19:01;;;;;;;12.43;5.80;;;29.50;24.90;;;;;;4981617;28;20097;-81
2023/04/20 10:21:29;;;;;;;8.43;4.53;;;29.00;24.90;;;;;;4967466;28;20035;-81
2023/04/20 10:23:57;;;;;;;8.07;5.60;;;28.10;24.90;;;;;;4977117;28;20513;-80
2023/04/20 10:26:34;;;;;;;6.93;4.25;;;27.00;25.60;;;;;;4973107;28;20090;-82
2023/04/20 10:29:00;;;;;;;11.60;5.45;;;26.10;26.00;;;;;;4984715;28;20074;-81
2023/04/20 10:31:38;;;;;;;10.10;4.97;;;25.30;26.40;;;;;;4985293;28;20408;-81
2023/04/20 10:34:05;;;;;;;9.68;5.50;;;24.50;26.90;;;;;;5001096;28;20098;-84
2023/04/20 10:36:35;;;;;;;11.43;5.07;;;24.00;28.00;;;;;;4972003;28;20031;-83
2023/04/20 10:39:14;;;;;;;17.13;5.68;;;23.50;27.70;;;;;;4980710;28;20023;-82
2023/04/20 10:41:54;;;;;;;9.27;5.75;;;23.00;27.80;;;;;;4967718;28;20129;-82
2023/04/20 10:44:23;;;;;;;11.43;5.10;;;22.10;28.40;;;;;;4963960;28;20479;-84
2023/04/20 10:46:50;;;;;;;5.65;4.32;;;21.60;28.80;;;;;;4944895;29;20036;-82
2023/04/20 10:49:17;;;;;;;9.43;4.78;;;21.30;29.20;;;;;;4968797;28;20026;-79
2023/04/20 10:51:49;;;;;;;12.33;5.73;;;20.90;29.40;;;;;;4978026;28;20034;-82
2023/04/20 10:54:19;;;;;;;6.13;4.22;;;20.50;29.10;;;;;;4967157;28;20276;-82
2023/04/20 10:57:15;;;;;;;11.70;4.03;;;20.10;29.50;;;;;;4971746;28;20227;-80
2023/04/20 10:59:40;;;;;;;9.30;5.00;;;20.20;29.70;;;;;;4871681;29;20120;-80
2023/04/20 11:02:11;;;;;;;7.90;5.03;;;20.30;29.60;;;;;;4888991;29;20124;-79
2023/04/20 11:04:37;;;;;;;5.50;4.63;;;20.30;29.70;;;;;;4878348;29;20046;-79
2023/04/20 11:07:09;;;;;;;14.20;5.32;;;20.30;29.70;;;;;;4869382;29;20045;-80
2023/04/20 11:09:39;;;;;;;13.85;5.13;;;20.20;29.90;;;;;;4877791;29;20022;-80
2023/04/20 11:12:10;;;;;;;10.70;4.68;;;20.30;29.50;;;;;;4888424;29;20025;-79
2023/04/20 11:15:01;;;;;;;4.38;3.90;;;20.40;29.50;;;;;;4899780;29;20056;-80
2023/04/20 11:17:35;;;;;;;6.88;4.45;;;20.40;29.50;;;;;;4886416;29;20135;-81
2023/04/20 11:20:30;;;;;;;6.75;4.80;;;20.40;29.70;;;;;;4876194;29;20028;-79
2023/04/20 11:22:58;;;;;;;14.75;5.82;;;20.50;29.40;;;;;;4871718;29;20113;-79
2023/04/20 11:25:24;;;;;;;9.52;4.70;;;20.70;29.40;;;;;;4879134;29;20073;-80
2023/04/20 11:27:50;;;;;;;4.95;4.15;;;20.90;29.50;;;;;;4893492;29;20037;-80
2023/04/20 11:30:16;;;;;;;10.13;5.18;;;21.20;29.60;;;;;;4889482;29;20049;-80
2023/04/20 11:32:42;;;;;;;10.88;5.65;;;21.10;29.50;;;;;;4887701;29;20029;-80
2023/04/20 11:35:09;;;;;;;7.90;5.25;;;21.10;29.70;;;;;;4885499;29;20056;-80
2023/04/20 11:37:52;;;;;;;13.70;5.32;;;21.10;29.80;;;;;;4981240;28;20065;-80
2023/04/20 11:40:18;;;;;;;12.68;6.07;;;21.00;30.50;;;;;;4980098;28;20029;-80
2023/04/20 11:42:45;;;;;;;12.68;6.03;;;20.60;32.00;;;;;;4983993;28;20031;-80
2023/04/20 11:45:11;;;;;;;18.87;5.83;;;20.40;32.60;;;;;;4986237;28;20023;-79
2023/04/20 11:47:39;;;;;;;17.08;5.80;;;20.20;32.80;;;;;;4961832;28;20031;-80
2023/04/20 11:50:06;;;;;;;18.17;7.13;;;19.60;33.40;;;;;;4979388;28;20075;-79
2023/04/20 11:52:32;;;;;;;12.43;6.00;;;19.20;34.30;;;;;;4981912;28;20049;-80
2023/04/20 11:54:59;;;;;;;18.30;6.90;;;19.00;34.50;;;;;;4976393;28;20168;-79
2023/04/20 11:57:25;;;;;;;14.48;6.22;;;18.90;34.40;;;;;;4976555;28;20117;-81
2023/04/20 11:59:50;;;;;;;12.73;5.75;;;18.80;34.10;;;;;;4991549;28;20034;-80
2023/04/20 12:02:16;;;;;;;12.60;6.18;;;18.70;34.20;;;;;;4966884;28;20043;-79
2023/04/20 12:04:42;;;;;;;9.88;6.25;;;18.60;34.50;;;;;;4985834;28;20047;-80
2023/04/20 12:07:08;;;;;;;7.05;5.53;;;18.60;34.60;;;;;;4972722;28;20046;-79
2023/04/20 12:09:36;;;;;;;6.30;4.88;;;18.30;34.50;;;;;;4989542;28;20074;-78
2023/04/20 12:12:04;;;;;;;11.07;5.93;;;18.20;34.90;;;;;;4967520;28;20023;-77
2023/04/20 12:14:32;;;;;;;7.72;4.90;;;18.30;34.90;;;;;;4980943;28;20083;-78
2023/04/20 12:16:58;;;;;;;;;;;18.30;35.10;;;;;;4983930;28;20026;-78
2023/04/20 12:19:24;;;;;;;11.33;5.93;;;18.00;35.10;;;;;;4980376;28;19906;-81
2023/04/20 12:21:50;;;;;;;11.10;6.13;;;17.90;35.10;;;;;;4979764;28;20035;-78
2023/04/20 12:24:16;;;;;;;12.23;5.03;;;18.00;35.50;;;;;;4980740;28;20023;-78
2023/04/20 12:26:42;;;;;;;10.48;5.40;;;18.00;35.50;;;;;;4963970;28;20170;-80
2023/04/20 12:29:08;;;;;;;10.05;5.22;;;18.00;35.30;;;;;;4978332;28;20046;-79
2023/04/20 12:31:34;;;;;;;33.00;7.50;;;18.10;35.00;;;;;;4968787;28;20050;-80
2023/04/20 12:34:01;;;;;;;8.00;5.33;;;18.00;35.00;;;;;;4981057;28;20038;-79
2023/04/20 12:36:27;;;;;;;9.20;5.68;;;17.90;35.00;;;;;;4977923;28;20103;-82
2023/04/20 12:38:54;;;;;;;9.60;5.45;;;17.90;35.20;;;;;;4971362;28;20030;-80
2023/04/20 12:41:22;;;;;;;9.07;5.22;;;17.90;35.40;;;;;;4990424;28;20480;-78
2023/04/20 12:43:50;;;;;;;;;;;18.00;35.20;;;;;;4978424;28;20041;-78